Dodge City Regional Airport
KDDC : now visible

Airfield :











YOU CAN JOIN US ON...

 
LOGIN :

Register | Disclaimer

   EN    FR    IT 

 









Legend :    VFR   Marginal VFR   IFR   Intensive IFR   Very Intensive IFR
Visi :
Ceiling :
>= 8 km
>= 3000ft
5 to 8 km
1000 to 3000 ft
1500m to 5 km
500 to 1000 ft
800 to 1500m
200 to 500 ft
< 800m
< 200 ft
Symbols :   Thunderstorms  Fog  Heavy snow  Heavy precipitations  Wind > 20 kt






- Airport Elevation : 2594 ft
- IATA code : DDC


KDDC - Dodge City Regional

CURRENT METAR :
  • 191452Z AUTO 16014KT 9SM OVC065 00/M06 A3036 RMK AO2 SLP302 T00001056 53007

EXPIRED METARs :
  • 191352Z AUTO 16013G21KT 9SM OVC070 00/M06 A3034 RMK AO2 SLP292 T00001056
  • 191252Z AUTO 14012KT 10SM OVC065 00/M06 A3034 RMK AO2 SLP290 T00001056

TAF KDDC
Valid from the 19 at 12:00 until the 20 at 12:00 UTC


191137Z 1912/2012 14011KT P6SM OVC060
FM191800 13013KT P6SM -SN OVC023
FM192000 11013KT 3SM -SN OVC012
FM200300 05012KT 1 1/2SM -SN OVC007
FM200800 02013KT 3SM -SN OVC007



MET'MAP, your aeronautical weather chart ! - Copyright ORBIFLY December 2007 - Disclaimer

ORBIFLY MET'MAP TEAM :

Programming & Development : Alexandra Zaïnal
Concept & original design : Baudouin d'Aumeries
Assistance for programming : Marc-Olivier Méhu
Technical & hardware support : Manuel Goepfert

Contact : metmap@orbifly.com




SOURCES & CREDITS :

   NOAA       Earth
Advisory